Time;durP1;ratioP1;P1;durP2;ratioP2;P2;SDS_P1;SDS_P2;PMS_P1;PMS_P2;Temp;Humidity;BMP_temperature;BMP_pressure;BME280_temperature;BME280_humidity;BME280_pressure;Samples;Min_cycle;Max_cycle;Signal;HPM_P1;HPM_P2
2022/08/20 00:01:17;;;;;;;8.10;5.93;;;;;;;26.34;44.03;94269.66;4164893;28;20041;-69
2022/08/20 00:03:30;;;;;;;11.65;5.82;;;;;;;26.34;43.76;94256.25;4168098;28;20148;-68
2022/08/20 00:05:35;;;;;;;7.55;5.32;;;;;;;26.33;43.67;94259.22;4168597;28;20081;-68
2022/08/20 00:07:37;;;;;;;11.40;6.07;;;;;;;26.28;44.05;94254.63;4171198;28;20512;-68
2022/08/20 00:09:40;;;;;;;8.32;5.68;;;;;;;26.23;44.07;94262.69;4175111;28;20077;-68
2022/08/20 00:11:42;;;;;;;9.30;6.03;;;;;;;26.19;44.39;94266.19;4171386;28;20131;-69
2022/08/20 00:13:47;;;;;;;13.98;6.03;;;;;;;26.20;44.40;94265.09;4171375;28;20475;-67
2022/08/20 00:15:49;;;;;;;5.97;5.35;;;;;;;26.22;44.13;94271.00;4171535;28;20119;-69
2022/08/20 00:17:51;;;;;;;7.55;6.00;;;;;;;26.23;44.20;94270.75;4159519;28;20061;-68
2022/08/20 00:19:53;;;;;;;8.18;5.47;;;;;;;26.26;44.45;94272.88;4168798;28;20622;-67
2022/08/20 00:21:56;;;;;;;10.63;6.20;;;;;;;26.31;44.05;94266.72;4160727;28;20642;-69
2022/08/20 00:23:59;;;;;;;7.80;5.75;;;;;;;26.32;44.32;94271.81;4171814;28;20048;-68
2022/08/20 00:26:01;;;;;;;8.30;6.07;;;;;;;26.34;44.06;94274.25;4170899;28;20041;-69
2022/08/20 00:28:05;;;;;;;9.27;5.80;;;;;;;26.35;44.17;94270.50;4153998;28;20049;-68
2022/08/20 00:30:10;;;;;;;10.68;5.68;;;;;;;26.35;44.08;94265.91;4157009;28;20133;-67
2022/08/20 00:32:12;;;;;;;9.70;5.63;;;;;;;26.32;44.28;94262.97;4171420;28;20045;-68
2022/08/20 00:34:13;;;;;;;8.23;6.20;;;;;;;26.31;44.28;94264.84;4170384;28;20052;-67
2022/08/20 00:36:17;;;;;;;7.45;6.35;;;;;;;26.26;44.18;94261.34;4173154;28;20123;-69
2022/08/20 00:38:19;;;;;;;7.43;6.38;;;;;;;26.25;44.33;94270.47;4173717;28;20057;-69
2022/08/20 00:40:28;;;;;;;7.75;6.32;;;;;;;26.24;44.61;94274.22;4163090;28;20073;-68
2022/08/20 00:42:30;;;;;;;9.88;6.10;;;;;;;26.24;44.82;94282.28;4158249;28;20109;-69
2022/08/20 00:44:32;;;;;;;7.10;5.97;;;;;;;26.18;44.83;94273.44;4148175;28;20053;-67
2022/08/20 00:46:34;;;;;;;8.40;6.57;;;;;;;26.18;44.90;94264.53;4126186;28;1368946;-69
2022/08/20 00:48:38;;;;;;;7.45;6.20;;;;;;;26.10;44.66;94268.59;4172465;28;20052;-67
2022/08/20 00:50:44;;;;;;;7.53;5.63;;;;;;;26.05;44.72;94261.34;4160436;28;20476;-69
2022/08/20 00:52:48;;;;;;;8.30;6.53;;;;;;;26.02;45.30;94267.22;4173713;28;20447;-68
2022/08/20 00:54:54;;;;;;;9.07;6.68;;;;;;;26.02;44.97;94256.47;4156727;28;20149;-68
2022/08/20 00:57:04;;;;;;;7.05;6.20;;;;;;;26.02;45.11;94264.53;4160420;28;20049;-68
2022/08/20 00:59:10;;;;;;;10.30;7.10;;;;;;;26.03;44.88;94263.47;4174825;28;20436;-69
2022/08/20 01:01:14;;;;;;;11.20;6.57;;;;;;;25.99;45.41;94242.81;4167224;28;20140;-69
2022/08/20 01:03:19;;;;;;;8.80;6.65;;;;;;;25.91;45.55;94252.97;4168908;28;20045;-69
2022/08/20 01:05:22;;;;;;;9.48;6.68;;;;;;;25.83;45.71;94248.09;4165709;28;20068;-68
2022/08/20 01:07:36;;;;;;;8.18;6.65;;;;;;;25.73;45.95;94237.38;4157738;28;20477;-69
2022/08/20 01:09:38;;;;;;;8.68;6.90;;;;;;;25.62;46.21;94235.69;4163013;28;20045;-70
2022/08/20 01:12:00;;;;;;;12.48;6.15;;;;;;;25.59;46.61;94237.03;4166022;28;20057;-68
2022/08/20 01:14:22;;;;;;;8.88;6.65;;;;;;;25.59;46.62;94230.88;4174022;28;20548;-68
2022/08/20 01:16:28;;;;;;;13.43;6.25;;;;;;;25.60;46.59;94238.66;4146401;28;20041;-68
2022/08/20 01:18:30;;;;;;;11.40;6.85;;;;;;;25.66;46.50;94239.47;4148339;28;20148;-70
2022/08/20 01:20:59;;;;;;;11.05;6.70;;;;;;;25.65;46.34;94227.94;4163167;28;20060;-69
2022/08/20 01:23:28;;;;;;;7.05;6.30;;;;;;;25.68;46.21;94235.47;4154427;28;20515;-69
2022/08/20 01:25:43;;;;;;;9.75;6.15;;;;;;;25.61;46.62;94237.59;4155770;28;20485;-69
2022/08/20 01:27:45;;;;;;;7.03;6.05;;;;;;;25.59;46.40;94231.69;4158614;28;20669;-68
2022/08/20 01:29:54;;;;;;;10.25;6.70;;;;;;;25.64;46.52;94236.25;4150371;28;20115;-70
2022/08/20 01:32:00;;;;;;;10.93;6.95;;;;;;;25.59;46.84;94231.69;4168877;28;20148;-68
2022/08/20 01:34:04;;;;;;;9.30;6.78;;;;;;;25.55;46.91;94230.59;4178283;28;20489;-69
2022/08/20 01:36:07;;;;;;;11.40;6.90;;;;;;;25.49;46.84;94234.31;4153688;28;20621;-68
2022/08/20 01:38:10;;;;;;;10.48;6.78;;;;;;;25.48;46.94;94230.03;4131988;28;20377;-68
2022/08/20 01:40:13;;;;;;;8.47;6.07;;;;;;;25.47;46.91;94223.88;4167636;28;20057;-69
2022/08/20 01:42:19;;;;;;;9.25;6.43;;;;;;;25.47;47.01;94228.44;4173481;28;20057;-68
2022/08/20 01:44:23;;;;;;;11.35;6.97;;;;;;;25.45;46.81;94226.03;4144520;28;20060;-68
2022/08/20 01:46:29;;;;;;;8.82;6.13;;;;;;;25.44;46.93;94213.66;4174272;28;20448;-68
2022/08/20 01:48:31;;;;;;;8.27;6.30;;;;;;;25.40;47.06;94203.72;4156303;28;20148;-68
2022/08/20 01:50:35;;;;;;;7.03;5.85;;;;;;;25.36;47.29;94200.78;4168533;28;20044;-69
2022/08/20 01:53:14;;;;;;;9.32;6.28;;;;;;;25.36;47.11;94208.84;4150613;28;20464;-68
2022/08/20 01:55:16;;;;;;;8.15;6.65;;;;;;;25.34;47.19;94213.66;4158634;28;20141;-70
2022/08/20 01:57:19;;;;;;;10.75;6.15;;;;;;;25.32;47.30;94216.59;4144118;28;20056;-69
2022/08/20 01:59:22;;;;;;;7.22;6.40;;;;;;;25.31;47.72;94216.84;4148200;28;20196;-68
2022/08/20 02:01:32;;;;;;;8.48;6.65;;;;;;;25.08;47.91;94218.06;4170380;28;20047;-68
2022/08/20 02:03:47;;;;;;;8.63;6.70;;;;;;;24.71;48.72;94222.41;4163259;28;20484;-70
2022/08/20 02:05:49;;;;;;;9.95;6.78;;;;;;;24.66;48.83;94224.28;4167332;28;20053;-68
2022/08/20 02:07:51;;;;;;;8.40;6.65;;;;;;;24.61;49.09;94221.53;4160788;28;20114;-69
2022/08/20 02:09:53;;;;;;;7.65;6.68;;;;;;;24.64;48.93;94224.53;4150520;28;20110;-68
2022/08/20 02:11:56;;;;;;;10.88;6.95;;;;;;;24.71;48.72;94221.63;4156923;28;20141;-67
2022/08/20 02:13:59;;;;;;;11.95;6.45;;;;;;;24.74;48.65;94221.13;4172520;28;20468;-69
2022/08/20 02:16:01;;;;;;;8.27;6.47;;;;;;;24.72;48.77;94220.56;4146876;28;20085;-69
2022/08/20 02:18:09;;;;;;;11.52;6.85;;;;;;;24.73;48.58;94216.81;4160931;28;20099;-68
2022/08/20 02:20:18;;;;;;;8.88;6.80;;;;;;;24.73;48.98;94219.47;4161439;28;20122;-68
2022/08/20 02:22:28;;;;;;;9.20;6.68;;;;;;;24.77;48.79;94217.09;4162430;28;20059;-68
2022/08/20 02:24:31;;;;;;;10.30;7.35;;;;;;;24.80;48.58;94219.25;4152304;28;20049;-68
2022/08/20 02:26:36;;;;;;;11.35;7.00;;;;;;;24.80;48.83;94209.38;4160114;28;20065;-69
2022/08/20 02:28:38;;;;;;;10.05;6.82;;;;;;;24.84;48.72;94218.47;4160534;28;20081;-68
2022/08/20 02:30:45;;;;;;;9.18;7.03;;;;;;;24.81;48.58;94219.00;4142926;28;20144;-68
2022/08/20 02:32:48;;;;;;;8.80;7.15;;;;;;;24.75;48.88;94219.22;4141761;28;20054;-69
2022/08/20 02:34:55;;;;;;;11.30;7.25;;;;;;;24.71;49.02;94224.28;4173708;28;20067;-68
2022/08/20 02:36:58;;;;;;;7.35;6.60;;;;;;;24.69;48.95;94227.25;4156601;28;20179;-69
2022/08/20 02:38:59;;;;;;;9.90;7.05;;;;;;;24.67;49.09;94225.88;4178379;28;20483;-69
2022/08/20 02:41:01;;;;;;;11.52;7.15;;;;;;;24.67;49.26;94224.03;4175949;28;20437;-68
2022/08/20 02:43:03;;;;;;;8.70;7.03;;;;;;;24.66;49.12;94218.91;4176443;28;20122;-70
2022/08/20 02:45:09;;;;;;;9.57;6.47;;;;;;;24.67;49.16;94224.03;4176422;28;20423;-69
2022/08/20 02:47:20;;;;;;;8.90;7.15;;;;;;;24.65;49.08;94222.66;4175211;28;20049;-68
2022/08/20 02:49:25;;;;;;;11.02;7.05;;;;;;;24.59;49.14;94226.38;4176598;28;20053;-69
2022/08/20 02:51:27;;;;;;;11.10;6.93;;;;;;;24.55;49.14;94231.44;4172125;28;20049;-68
2022/08/20 02:53:33;;;;;;;11.85;7.25;;;;;;;24.57;49.36;94228.50;4180781;28;20118;-67
2022/08/20 02:55:35;;;;;;;9.85;6.82;;;;;;;24.58;49.17;94225.56;4163485;28;20052;-68
2022/08/20 02:57:38;;;;;;;9.90;6.80;;;;;;;24.61;49.18;94232.25;4176200;28;20053;-69
2022/08/20 02:59:39;;;;;;;15.40;6.65;;;;;;;24.60;49.30;94227.97;4141738;28;20153;-70
2022/08/20 03:01:41;;;;;;;10.75;7.07;;;;;;;24.54;49.20;94227.13;4177075;28;20060;-70
2022/08/20 03:03:44;;;;;;;9.73;6.43;;;;;;;24.58;49.26;94238.13;4176719;28;20060;-68
2022/08/20 03:05:47;;;;;;;8.23;6.57;;;;;;;24.59;49.10;94234.41;4175678;28;20053;-72
2022/08/20 03:07:55;;;;;;;10.38;6.80;;;;;;;24.59;49.19;94237.09;4175562;28;20280;-69
2022/08/20 03:09:57;;;;;;;8.02;6.45;;;;;;;24.57;49.19;94229.31;4176605;28;20590;-68
2022/08/20 03:11:59;;;;;;;8.98;6.95;;;;;;;24.58;48.93;94233.59;4158679;28;20408;-68
2022/08/20 03:14:01;;;;;;;10.30;6.40;;;;;;;24.49;49.47;94235.94;4162847;28;20512;-67
2022/08/20 03:16:03;;;;;;;8.98;6.97;;;;;;;24.48;49.54;94234.34;4160212;28;20049;-69
2022/08/20 03:18:06;;;;;;;10.95;7.63;;;;;;;24.47;49.48;94232.69;4160287;28;20722;-66
2022/08/20 03:20:08;;;;;;;10.85;7.30;;;;;;;24.25;50.13;94240.00;4171552;28;20103;-68
2022/08/20 03:22:10;;;;;;;12.67;7.07;;;;;;;23.96;50.80;94232.25;4174540;28;20152;-70
2022/08/20 03:24:12;;;;;;;16.60;7.72;;;;;;;23.82;51.17;94239.09;4165962;28;20749;-67
2022/08/20 03:26:15;;;;;;;10.13;6.95;;;;;;;23.86;51.10;94234.84;4174841;28;20114;-69
2022/08/20 03:28:18;;;;;;;10.75;7.05;;;;;;;23.95;50.74;94241.34;4165791;28;20061;-70
2022/08/20 03:30:22;;;;;;;12.13;7.13;;;;;;;24.05;50.53;94241.47;4161981;28;20132;-67
2022/08/20 03:32:24;;;;;;;10.13;7.70;;;;;;;24.10;50.73;94236.13;4176808;28;20404;-68
2022/08/20 03:34:27;;;;;;;11.63;6.80;;;;;;;24.19;50.40;94238.34;4169386;28;20127;-70
2022/08/20 03:36:29;;;;;;;10.35;7.53;;;;;;;24.19;50.48;94243.72;4169935;28;20144;-69
2022/08/20 03:38:31;;;;;;;8.85;7.30;;;;;;;24.25;50.25;94246.16;4148769;28;20042;-69
2022/08/20 03:40:35;;;;;;;8.55;6.85;;;;;;;24.26;50.06;94238.94;4159260;28;20068;-69
2022/08/20 03:42:38;;;;;;;10.63;7.22;;;;;;;24.26;49.94;94246.97;4175322;28;20056;-67
2022/08/20 03:44:40;;;;;;;10.60;6.72;;;;;;;24.17;50.04;94235.13;4171167;28;20079;-69
2022/08/20 03:46:42;;;;;;;7.63;6.80;;;;;;;24.19;50.03;94244.50;4173564;28;20055;-67
2022/08/20 03:48:44;;;;;;;10.00;7.20;;;;;;;24.21;49.96;94241.59;4162986;28;20125;-68
2022/08/20 03:50:49;;;;;;;10.50;7.43;;;;;;;24.26;49.88;94247.78;4159442;28;20064;-68
2022/08/20 03:52:52;;;;;;;14.40;7.45;;;;;;;24.29;49.75;94244.59;4173405;28;20110;-68
2022/08/20 03:54:54;;;;;;;9.75;7.47;;;;;;;24.37;49.78;94251.38;4155196;28;20471;-68
2022/08/20 03:56:56;;;;;;;13.27;7.50;;;;;;;24.38;49.63;94260.19;4161470;28;20136;-66
2022/08/20 03:58:58;;;;;;;11.85;7.53;;;;;;;24.34;50.15;94265.25;4160263;28;20065;-68
2022/08/20 04:01:19;;;;;;;11.90;7.45;;;;;;;24.19;50.28;94257.09;4160262;28;20168;-68
2022/08/20 04:03:41;;;;;;;10.95;7.28;;;;;;;24.15;49.94;94255.97;4160368;28;20052;-68
2022/08/20 04:05:43;;;;;;;15.32;8.00;;;;;;;24.16;50.00;94258.41;4160942;28;20049;-68
2022/08/20 04:07:45;;;;;;;8.77;7.38;;;;;;;24.18;50.01;94247.44;4161600;28;20064;-70
2022/08/20 04:09:47;;;;;;;8.18;7.00;;;;;;;24.23;49.85;94252.84;4176061;28;20140;-68
2022/08/20 04:11:49;;;;;;;11.75;7.53;;;;;;;24.26;49.93;94260.34;4166379;28;20410;-68
2022/08/20 04:13:51;;;;;;;10.73;7.50;;;;;;;24.27;49.61;94253.94;4171835;28;20080;-69
2022/08/20 04:15:56;;;;;;;10.27;7.13;;;;;;;24.34;49.71;94262.56;4174903;28;20052;-66
2022/08/20 04:17:58;;;;;;;9.35;7.03;;;;;;;24.42;49.53;94261.31;4174798;28;20281;-67
2022/08/20 04:20:04;;;;;;;9.43;7.30;;;;;;;24.45;49.42;94261.56;4166046;28;20107;-68
2022/08/20 04:22:06;;;;;;;10.45;7.25;;;;;;;24.46;49.50;94265.09;4158144;28;20191;-68
2022/08/20 04:24:09;;;;;;;10.60;7.15;;;;;;;24.51;49.51;94260.59;4144713;28;20156;-68
2022/08/20 04:26:32;;;;;;;10.35;7.57;;;;;;;24.57;49.36;94263.31;4174580;28;20045;-68
2022/08/20 04:28:35;;;;;;;9.63;7.43;;;;;;;24.58;49.28;94270.28;4161718;28;20059;-68
2022/08/20 04:30:38;;;;;;;9.57;7.00;;;;;;;24.66;49.03;94267.13;4162991;28;20166;-68
2022/08/20 04:32:44;;;;;;;9.32;7.10;;;;;;;24.70;49.06;94268.22;4167241;28;20052;-68
2022/08/20 04:34:46;;;;;;;12.93;7.55;;;;;;;24.67;49.03;94268.72;4159853;28;20394;-69
2022/08/20 04:36:48;;;;;;;12.38;7.20;;;;;;;24.72;49.03;94271.47;4165875;28;20467;-67
2022/08/20 04:38:50;;;;;;;11.52;7.40;;;;;;;24.66;49.17;94261.78;4163325;28;20073;-67
2022/08/20 04:40:53;;;;;;;9.20;7.78;;;;;;;24.63;49.38;94259.59;4172169;28;20045;-67
2022/08/20 04:42:55;;;;;;;13.85;7.72;;;;;;;24.66;49.21;94267.91;4169754;28;20049;-68
2022/08/20 04:44:58;;;;;;;10.30;7.83;;;;;;;24.72;49.23;94271.47;4166804;28;20143;-68
2022/08/20 04:47:00;;;;;;;10.63;7.30;;;;;;;24.80;49.24;94273.66;4173852;28;20083;-68
2022/08/20 04:49:03;;;;;;;11.95;7.43;;;;;;;24.83;48.82;94266.97;4173514;28;20080;-67
2022/08/20 04:51:06;;;;;;;10.65;7.32;;;;;;;24.88;48.87;94270.47;4174460;28;20403;-67
2022/08/20 04:53:10;;;;;;;9.77;7.63;;;;;;;24.94;48.78;94277.47;4173063;28;20040;-67
2022/08/20 04:55:12;;;;;;;9.90;7.25;;;;;;;25.01;48.95;94269.22;4180080;28;20462;-68
2022/08/20 04:57:14;;;;;;;10.00;7.50;;;;;;;25.08;48.61;94266.28;4173393;28;20057;-68
2022/08/20 04:59:16;;;;;;;15.35;7.78;;;;;;;25.12;48.25;94259.34;4174739;28;20511;-68
2022/08/20 05:01:18;;;;;;;12.48;7.50;;;;;;;25.13;48.28;94256.41;4164551;28;20064;-68
2022/08/20 05:03:21;;;;;;;22.67;8.65;;;;;;;25.19;48.13;94259.94;4171172;28;20106;-68
2022/08/20 05:05:26;;;;;;;9.05;7.80;;;;;;;25.15;48.44;94261.53;4160847;28;20475;-68
2022/08/20 05:07:28;;;;;;;;;;;;;;;25.14;48.40;94271.44;4174026;28;20155;-68
2022/08/20 05:09:31;;;;;;;10.82;8.10;;;;;;;25.06;48.68;94271.94;4174542;28;20385;-69
2022/08/20 05:11:44;;;;;;;;;;;;;;;25.05;48.73;94275.66;4174351;28;20065;-67
2022/08/20 05:13:46;;;;;;;13.25;8.40;;;;;;;25.04;48.78;94278.63;4174805;28;19928;-68
2022/08/20 05:15:48;;;;;;;15.05;9.05;;;;;;;24.82;49.18;94265.34;4143915;28;20274;-67
2022/08/20 05:17:55;;;;;;;13.90;8.25;;;;;;;24.70;49.72;94269.03;4169349;28;20056;-66
2022/08/20 05:19:59;;;;;;;13.35;8.85;;;;;;;24.84;49.59;94274.72;4157235;28;20477;-67
2022/08/20 05:22:01;;;;;;;14.15;7.82;;;;;;;24.93;49.48;94273.19;4171351;28;20053;-68
2022/08/20 05:24:03;;;;;;;12.90;8.00;;;;;;;25.11;49.13;94273.81;4158151;28;20049;-69
2022/08/20 05:26:06;;;;;;;11.88;7.53;;;;;;;25.27;48.74;94264.00;4158258;28;20069;-69
2022/08/20 05:28:11;;;;;;;13.77;8.38;;;;;;;25.40;48.46;94260.03;4169161;28;20049;-67
2022/08/20 05:30:13;;;;;;;12.45;8.25;;;;;;;25.37;48.42;94258.69;4183003;28;20524;-69
2022/08/20 05:32:15;;;;;;;11.37;8.10;;;;;;;25.31;48.92;94252.50;4174750;28;20049;-69
2022/08/20 05:34:17;;;;;;;10.75;8.13;;;;;;;25.18;49.41;94258.31;4176731;28;20284;-68
2022/08/20 05:36:20;;;;;;;12.73;8.15;;;;;;;25.21;49.81;94252.47;4158947;28;20117;-68
2022/08/20 05:38:26;;;;;;;19.35;8.18;;;;;;;25.17;49.64;94251.34;4166895;28;20200;-67
2022/08/20 05:40:28;;;;;;;11.02;7.82;;;;;;;25.24;49.68;94245.78;4156858;28;20128;-69
2022/08/20 05:42:30;;;;;;;16.67;8.20;;;;;;;25.41;49.51;94245.59;4173480;28;20053;-70
2022/08/20 05:44:32;;;;;;;13.40;8.35;;;;;;;25.57;49.11;94254.47;4175114;28;20056;-71
2022/08/20 05:46:34;;;;;;;12.82;8.30;;;;;;;25.61;49.14;94253.69;4166793;28;20085;-68
2022/08/20 05:48:36;;;;;;;11.07;8.10;;;;;;;25.71;48.78;94261.75;4170957;28;20254;-67
2022/08/20 05:50:39;;;;;;;9.68;8.23;;;;;;;25.86;48.71;94258.31;4175860;28;20061;-67
2022/08/20 05:52:41;;;;;;;12.13;8.07;;;;;;;25.89;48.36;94263.16;4161506;28;20477;-67
2022/08/20 05:54:45;;;;;;;12.38;7.85;;;;;;;25.89;48.53;94257.81;4164189;28;20152;-67
2022/08/20 05:56:47;;;;;;;20.27;8.98;;;;;;;25.90;48.71;94254.06;4177347;28;20114;-69
2022/08/20 05:58:49;;;;;;;18.00;7.95;;;;;;;25.98;48.26;94250.03;4174989;28;20048;-69
2022/08/20 06:00:53;;;;;;;13.52;8.23;;;;;;;26.04;48.35;94242.81;4162408;28;20052;-67
2022/08/20 06:05:18;;;;;;;11.13;7.82;;;;;;;25.84;48.48;94246.25;4164904;28;20649;-68
2022/08/20 06:07:21;;;;;;;11.57;8.20;;;;;;;25.91;48.51;94244.91;4177094;28;20048;-69
2022/08/20 06:09:25;;;;;;;9.13;8.10;;;;;;;26.09;48.42;94248.16;4177818;28;20451;-68
2022/08/20 06:11:33;;;;;;;12.35;8.50;;;;;;;26.26;47.99;94246.03;4160700;28;20057;-68
2022/08/20 06:13:38;;;;;;;11.98;8.60;;;;;;;26.35;47.58;94249.81;4177788;28;20495;-68
2022/08/20 06:15:40;;;;;;;14.23;8.25;;;;;;;26.38;47.82;94251.16;4177680;28;20531;-68
2022/08/20 06:17:41;;;;;;;11.45;8.82;;;;;;;26.44;47.63;94247.38;4177265;28;20460;-68
2022/08/20 06:19:45;;;;;;;11.20;8.93;;;;;;;26.53;47.08;94253.03;4177630;28;20492;-69
2022/08/20 06:21:47;;;;;;;11.00;8.38;;;;;;;26.57;47.63;94246.06;4143054;28;20057;-68
2022/08/20 06:23:49;;;;;;;13.68;8.20;;;;;;;26.49;47.30;94250.06;4177634;28;20114;-70
2022/08/20 06:25:59;;;;;;;11.50;8.10;;;;;;;26.53;47.07;94251.13;4177723;28;20056;-69
2022/08/20 06:28:03;;;;;;;11.80;7.80;;;;;;;26.56;46.87;94247.13;4160028;28;20076;-68
2022/08/20 06:30:07;;;;;;;11.75;7.70;;;;;;;26.48;47.14;94251.16;4176906;28;20114;-68
2022/08/20 06:32:09;;;;;;;11.68;8.38;;;;;;;26.48;47.08;94236.91;4164700;28;20091;-68
2022/08/20 06:34:11;;;;;;;12.82;7.68;;;;;;;26.41;47.20;94241.75;4177256;28;20056;-67
2022/08/20 06:36:12;;;;;;;13.48;8.27;;;;;;;26.43;47.93;94248.44;4177335;28;20112;-69
2022/08/20 06:38:20;;;;;;;11.00;8.35;;;;;;;26.64;47.62;94240.41;4167520;28;20080;-67
2022/08/20 06:40:24;;;;;;;14.55;7.85;;;;;;;26.73;47.51;94244.97;4175836;28;20102;-69
2022/08/20 06:42:25;;;;;;;11.32;8.05;;;;;;;26.79;47.63;94242.28;4168100;28;20065;-67
2022/08/20 06:44:28;;;;;;;10.82;8.82;;;;;;;26.81;47.26;94245.50;4168289;28;20193;-66
2022/08/20 06:46:31;;;;;;;16.10;7.53;;;;;;;26.88;47.41;94237.97;4173199;28;20264;-69
2022/08/20 06:48:33;;;;;;;10.93;8.27;;;;;;;27.06;46.88;94236.56;4165070;28;20053;-67
2022/08/20 06:50:44;;;;;;;12.53;8.27;;;;;;;27.20;46.35;94232.22;4165609;28;20060;-68
2022/08/20 06:52:48;;;;;;;12.68;8.82;;;;;;;27.33;46.22;94233.53;4174246;28;20190;-66
2022/08/20 06:54:53;;;;;;;9.27;7.93;;;;;;;27.41;46.02;94232.19;4167595;28;20071;-68
2022/08/20 06:56:55;;;;;;;11.30;8.07;;;;;;;27.36;46.73;94232.97;4173729;28;20350;-70
2022/08/20 06:58:57;;;;;;;15.93;7.55;;;;;;;27.50;46.10;94231.31;4166637;28;20049;-68
2022/08/20 07:00:59;;;;;;;13.90;8.25;;;;;;;27.65;45.56;94237.72;4172499;28;20099;-69
2022/08/20 07:03:12;;;;;;;14.25;8.70;;;;;;;27.66;46.08;94233.94;4163076;28;20084;-68
2022/08/20 07:05:15;;;;;;;12.63;8.40;;;;;;;27.74;46.15;94228.75;4158725;28;20057;-69
2022/08/20 07:07:18;;;;;;;9.83;7.47;;;;;;;27.81;45.79;94227.66;4162358;28;20059;-69
2022/08/20 07:09:20;;;;;;;10.57;8.25;;;;;;;27.93;45.54;94220.06;4175001;28;20313;-69
2022/08/20 07:11:22;;;;;;;12.15;8.23;;;;;;;28.01;45.69;94224.88;4176755;28;20091;-69
2022/08/20 07:13:30;;;;;;;12.57;8.60;;;;;;;28.03;45.44;94219.19;4151309;28;20049;-69
2022/08/20 07:15:32;;;;;;;10.27;8.43;;;;;;;28.09;45.77;94210.81;4155325;28;20069;-68
2022/08/20 07:17:35;;;;;;;12.98;7.57;;;;;;;28.15;45.18;94206.97;4160564;28;20060;-68
2022/08/20 07:19:37;;;;;;;14.20;8.13;;;;;;;28.20;44.93;94208.84;4160498;28;20127;-67
2022/08/20 07:21:40;;;;;;;;;;;;;;;28.17;44.72;94212.09;4159123;28;20132;-69
2022/08/20 07:23:42;;;;;;;10.70;7.55;;;;;;;28.07;45.01;94220.25;4162397;28;19929;-68
2022/08/20 07:25:44;;;;;;;11.65;8.18;;;;;;;28.08;45.06;94213.78;4159288;28;20075;-66
2022/08/20 07:27:46;;;;;;;17.25;8.25;;;;;;;28.12;45.12;94215.63;4167810;28;20198;-68
2022/08/20 07:32:35;;;;;;;9.80;8.13;;;;;;;28.05;44.78;94211.63;4164729;28;20125;-69
2022/08/20 07:34:40;;;;;;;12.20;8.18;;;;;;;28.06;45.17;94211.38;4175773;28;20049;-69
2022/08/20 07:36:47;;;;;;;9.40;7.43;;;;;;;28.16;44.83;94210.50;4175761;28;20067;-69
2022/08/20 07:38:51;;;;;;;14.20;7.88;;;;;;;28.34;44.56;94207.09;4176147;28;20197;-67
2022/08/20 07:40:56;;;;;;;14.18;8.23;;;;;;;28.49;44.62;94206.19;4167565;28;20053;-69
2022/08/20 07:43:02;;;;;;;13.00;7.78;;;;;;;28.67;44.34;94203.88;4169757;28;20152;-69
2022/08/20 07:45:09;;;;;;;12.75;8.27;;;;;;;28.79;44.33;94212.38;4170735;28;20353;-69
2022/08/20 07:47:11;;;;;;;12.55;8.15;;;;;;;28.90;43.67;94213.09;4158168;28;20119;-68
2022/08/20 07:49:13;;;;;;;16.33;7.63;;;;;;;29.06;43.39;94216.41;4154565;28;20050;-68
2022/08/20 07:51:17;;;;;;;11.43;8.00;;;;;;;29.13;42.92;94220.41;4175876;28;20083;-69
2022/08/20 07:53:19;;;;;;;10.38;7.60;;;;;;;29.16;42.82;94203.66;4171617;28;20343;-70
2022/08/20 07:55:21;;;;;;;11.13;7.60;;;;;;;29.27;42.60;94208.94;4153504;28;20145;-68
2022/08/20 07:57:23;;;;;;;11.60;7.47;;;;;;;29.33;42.63;94205.06;4181892;28;20053;-67
2022/08/20 07:59:25;;;;;;;10.95;7.38;;;;;;;29.17;42.73;94205.25;4181846;28;20352;-70
2022/08/20 08:01:29;;;;;;;22.67;8.13;;;;;;;29.28;42.74;94210.53;4170569;28;20085;-69
2022/08/20 08:03:32;;;;;;;10.18;7.68;;;;;;;29.42;42.43;94210.63;4173998;28;20052;-68
2022/08/20 08:05:50;;;;;;;14.75;7.82;;;;;;;29.60;42.22;94212.56;4163822;28;20075;-69
2022/08/20 08:07:52;;;;;;;12.10;7.93;;;;;;;29.54;42.33;94208.31;4171540;28;20082;-68
2022/08/20 08:09:55;;;;;;;10.57;8.07;;;;;;;29.50;42.18;94199.19;4169406;28;20045;-69
2022/08/20 08:11:59;;;;;;;11.43;8.30;;;;;;;29.44;42.43;94201.16;4157449;28;20611;-68
2022/08/20 08:14:02;;;;;;;108.03;79.20;;;;;;;29.51;42.24;94206.19;4154387;28;20512;-70
2022/08/20 08:16:06;;;;;;;12.68;7.80;;;;;;;29.69;42.25;94215.41;4163399;28;20140;-69
2022/08/20 08:18:11;;;;;;;12.20;7.82;;;;;;;29.77;41.82;94210.19;4158071;28;20045;-69
2022/08/20 08:20:16;;;;;;;13.60;7.75;;;;;;;29.90;41.42;94200.56;4157391;28;20065;-69
2022/08/20 08:22:18;;;;;;;10.85;7.90;;;;;;;30.01;40.80;94193.13;4172887;28;20503;-68
2022/08/20 08:24:20;;;;;;;11.40;7.28;;;;;;;30.13;40.38;94192.66;4174634;28;20556;-68
2022/08/20 08:26:28;;;;;;;10.45;7.18;;;;;;;30.16;40.27;94192.06;4174078;28;20059;-67
2022/08/20 08:28:30;;;;;;;8.60;7.63;;;;;;;30.21;40.30;94192.00;4174216;28;20049;-67
2022/08/20 08:30:32;;;;;;;8.00;7.20;;;;;;;30.20;40.22;94196.59;4156366;28;20053;-68
2022/08/20 08:33:26;;;;;;;13.23;6.93;;;;;;;30.23;40.45;94195.19;4174647;28;20052;-67
2022/08/20 08:35:04;;;;;;;8.55;7.50;;;;;;;30.23;40.24;94178.19;4173303;28;20048;-69
2022/08/20 08:37:07;;;;;;;11.23;7.20;;;;;;;30.31;40.29;94186.44;4166182;28;20053;-70
2022/08/20 08:39:09;;;;;;;9.27;7.55;;;;;;;30.45;39.84;94180.28;4156993;28;20088;-69
2022/08/20 08:41:28;;;;;;;13.32;7.55;;;;;;;30.57;39.57;94175.22;4174667;28;20060;-67
2022/08/20 08:43:30;;;;;;;11.25;7.88;;;;;;;30.59;39.25;94183.81;4175089;28;20511;-68
2022/08/20 08:45:44;;;;;;;9.25;7.50;;;;;;;30.64;39.96;94183.72;4161933;28;20140;-70
2022/08/20 08:47:46;;;;;;;10.80;8.20;;;;;;;30.76;39.18;94183.22;4146149;28;20060;-68
2022/08/20 08:49:48;;;;;;;9.18;7.43;;;;;;;30.79;39.27;94174.53;4175159;28;20586;-68
2022/08/20 08:51:55;;;;;;;12.48;7.68;;;;;;;30.82;38.94;94163.09;4174134;28;20057;-66
2022/08/20 08:53:57;;;;;;;8.70;7.78;;;;;;;30.90;38.93;94169.75;4175286;28;20440;-67
2022/08/20 08:56:06;;;;;;;10.90;7.40;;;;;;;30.86;38.54;94164.16;4167903;28;20049;-67
2022/08/20 08:58:09;;;;;;;9.52;7.28;;;;;;;30.88;38.76;94158.44;4170940;28;20045;-68
2022/08/20 09:00:20;;;;;;;14.48;7.97;;;;;;;30.96;38.79;94163.97;4184792;28;20128;-68
2022/08/20 09:02:27;;;;;;;9.27;7.68;;;;;;;31.08;38.84;94157.25;4142085;28;20128;-68
2022/08/20 09:04:37;;;;;;;9.48;7.35;;;;;;;31.16;38.80;94145.72;4151262;28;20128;-68
2022/08/20 09:06:40;;;;;;;12.90;8.00;;;;;;;31.27;38.36;94149.81;4143879;28;20049;-66
2022/08/20 09:08:54;;;;;;;12.43;7.38;;;;;;;31.25;38.99;94154.72;4166589;28;20144;-67
2022/08/20 09:11:03;;;;;;;10.48;7.57;;;;;;;30.95;38.99;94148.81;4161316;28;20061;-67
2022/08/20 09:13:05;;;;;;;11.02;7.40;;;;;;;30.73;39.51;94151.41;4175152;28;20045;-69
2022/08/20 09:15:08;;;;;;;8.05;7.22;;;;;;;30.75;39.22;94158.09;4165622;28;20123;-68
2022/08/20 09:17:09;;;;;;;13.60;7.47;;;;;;;30.83;39.19;94159.31;4171199;28;20439;-68
2022/08/20 09:19:12;;;;;;;14.90;8.68;;;;;;;31.06;38.96;94154.03;4158951;28;20045;-70
2022/08/20 09:21:13;;;;;;;13.48;7.82;;;;;;;30.79;38.94;94159.09;4158913;28;20103;-67
2022/08/20 09:23:16;;;;;;;11.13;7.93;;;;;;;30.89;39.04;94158.16;4168403;28;20155;-69
2022/08/20 09:25:18;;;;;;;11.88;8.10;;;;;;;30.92;38.44;94159.44;4163246;28;20054;-68
2022/08/20 09:27:20;;;;;;;9.50;7.57;;;;;;;30.60;38.72;94151.06;4156896;28;20052;-69
2022/08/20 09:29:22;;;;;;;10.07;7.75;;;;;;;30.27;39.30;94152.19;4169410;28;20056;-68
2022/08/20 09:31:24;;;;;;;9.45;7.43;;;;;;;30.32;39.09;94155.63;4133575;28;20046;-69
2022/08/20 09:33:27;;;;;;;8.65;7.75;;;;;;;30.24;39.86;94147.38;4162564;28;20535;-70
2022/08/20 09:35:29;;;;;;;9.65;7.30;;;;;;;30.46;39.35;94142.16;4160228;28;20060;-71
2022/08/20 09:37:31;;;;;;;9.95;7.75;;;;;;;30.77;38.43;94138.88;4167973;28;20053;-70
2022/08/20 09:39:38;;;;;;;12.55;7.78;;;;;;;31.02;38.32;94141.13;4167797;28;20056;-68
2022/08/20 09:41:40;;;;;;;10.52;7.72;;;;;;;31.25;37.17;94140.41;4164652;28;20400;-68
2022/08/20 09:43:42;;;;;;;12.35;7.55;;;;;;;31.41;36.97;94128.16;4165250;28;20049;-69
2022/08/20 09:45:44;;;;;;;8.88;7.60;;;;;;;31.51;36.45;94144.19;4167838;28;20141;-68
2022/08/20 09:47:46;;;;;;;14.48;8.27;;;;;;;31.32;36.57;94143.47;4166365;28;20076;-68